createdAt,value
2018-07-02T04:25:15.702Z,4.70
2018-07-02T04:27:48.898Z,4.97
2018-07-02T04:30:21.966Z,5.17
2018-07-02T04:32:55.099Z,5.87
2018-07-02T04:35:28.173Z,9.03
2018-07-02T04:38:01.237Z,12.03
2018-07-02T04:40:34.418Z,6.10
2018-07-02T04:43:06.306Z,8.70
2018-07-02T04:45:39.611Z,7.63
2018-07-02T04:48:12.874Z,8.00
2018-07-02T04:50:46.114Z,6.07
2018-07-02T04:53:19.389Z,6.10
2018-07-02T04:55:52.621Z,6.13
2018-07-02T04:58:25.878Z,7.10
2018-07-02T05:01:03.209Z,7.40
2018-07-02T05:03:36.295Z,7.93
2018-07-02T05:06:08.417Z,6.97
2018-07-02T05:08:41.504Z,8.13
2018-07-02T05:11:14.494Z,8.20
2018-07-02T05:13:47.547Z,8.40
2018-07-02T05:16:20.639Z,8.60
2018-07-02T05:18:53.769Z,8.73
2018-07-02T05:21:26.882Z,8.50
2018-07-02T05:24:00.094Z,8.63
2018-07-02T05:26:33.110Z,7.77
2018-07-02T05:29:06.085Z,6.57
2018-07-02T05:31:39.303Z,7.57
2018-07-02T05:34:12.375Z,7.90
2018-07-02T05:36:45.574Z,7.17
2018-07-02T05:39:18.655Z,7.83
2018-07-02T05:41:51.782Z,7.67
2018-07-02T05:44:25.080Z,6.13
2018-07-02T05:46:58.217Z,6.00
2018-07-02T05:49:31.369Z,6.53
2018-07-02T05:52:04.345Z,6.93
2018-07-02T05:54:37.490Z,6.03
2018-07-02T05:57:10.635Z,6.60
2018-07-02T05:59:43.800Z,5.80
2018-07-02T06:02:17.145Z,6.43
2018-07-02T06:04:50.246Z,7.27
2018-07-02T06:07:23.395Z,6.63
2018-07-02T06:09:56.458Z,6.70
2018-07-02T06:12:29.637Z,8.23
2018-07-02T06:15:02.779Z,8.73
2018-07-02T06:17:35.911Z,8.47
2018-07-02T06:20:09.817Z,8.10
2018-07-02T06:22:44.196Z,8.20
2018-07-02T06:25:17.223Z,8.70
2018-07-02T06:27:50.293Z,8.37
2018-07-02T06:30:23.491Z,8.40
2018-07-02T06:32:56.567Z,7.40
2018-07-02T06:35:29.566Z,7.23
2018-07-02T06:38:02.663Z,7.43
2018-07-02T06:40:36.835Z,6.83
2018-07-02T06:43:09.874Z,7.57
2018-07-02T06:45:42.920Z,7.67
2018-07-02T06:48:16.080Z,8.17
2018-07-02T06:50:49.065Z,6.73
2018-07-02T06:53:22.173Z,6.43
2018-07-02T06:55:55.351Z,6.17
2018-07-02T06:58:28.486Z,5.50
2018-07-02T07:01:01.583Z,5.73
2018-07-02T07:03:34.647Z,5.50
2018-07-02T07:06:07.851Z,5.07
2018-07-02T07:08:41.094Z,5.27
2018-07-02T07:11:14.157Z,4.87
2018-07-02T07:13:47.366Z,4.20
2018-07-02T07:16:20.409Z,5.13
2018-07-02T07:18:53.592Z,5.10
2018-07-02T07:21:26.712Z,4.53
2018-07-02T07:23:59.765Z,4.90
2018-07-02T07:26:32.974Z,4.70
2018-07-02T07:29:06.047Z,5.67
2018-07-02T07:31:39.294Z,5.43
2018-07-02T07:34:11.058Z,5.73
2018-07-02T07:36:44.356Z,5.97
2018-07-02T07:39:17.519Z,5.47
2018-07-02T07:41:51.592Z,5.37
2018-07-02T07:44:24.837Z,7.67
2018-07-02T07:46:57.886Z,8.20
2018-07-02T07:49:31.105Z,8.20
2018-07-02T07:52:04.137Z,8.43
2018-07-02T07:54:37.226Z,8.00
2018-07-02T07:57:10.566Z,8.60
2018-07-02T07:59:43.683Z,8.73
2018-07-02T08:02:16.791Z,7.50
2018-07-02T08:04:50.137Z,8.30
2018-07-02T08:07:23.419Z,8.33
2018-07-02T08:09:56.499Z,9.50
2018-07-02T08:12:29.702Z,8.60
2018-07-02T08:15:02.811Z,9.07
2018-07-02T08:17:35.973Z,9.57
2018-07-02T08:20:09.759Z,9.20
2018-07-02T08:22:42.835Z,8.00
2018-07-02T08:25:16.020Z,8.60
2018-07-02T08:27:49.104Z,8.50
2018-07-02T08:30:22.147Z,8.47
2018-07-02T08:32:55.363Z,8.10
2018-07-02T08:35:28.583Z,8.63
2018-07-02T08:38:02.287Z,7.50
2018-07-02T08:43:16.107Z,8.90
2018-07-02T08:46:00.453Z,7.53
2018-07-02T08:48:33.639Z,7.77
2018-07-02T08:51:06.692Z,7.37
2018-07-02T08:53:39.807Z,7.53
2018-07-02T08:56:13.125Z,7.90
2018-07-02T08:58:46.129Z,7.80
2018-07-02T09:01:19.215Z,8.03
2018-07-02T09:03:52.362Z,8.27
2018-07-02T09:06:25.501Z,7.50
2018-07-02T09:08:58.779Z,7.40
2018-07-02T09:11:31.887Z,8.40
2018-07-02T09:14:05.108Z,6.90
2018-07-02T09:16:38.219Z,7.93
2018-07-02T09:19:11.238Z,7.90
2018-07-02T09:21:44.390Z,7.43
2018-07-02T09:24:17.757Z,8.20
2018-07-02T09:26:50.853Z,8.50
2018-07-02T09:29:24.022Z,7.40
2018-07-02T09:31:57.202Z,6.83
2018-07-02T09:34:31.665Z,7.93
2018-07-02T09:37:04.976Z,8.73
2018-07-02T09:39:39.325Z,7.40
2018-07-02T09:42:12.475Z,8.40
2018-07-02T09:44:45.670Z,7.90
2018-07-02T09:47:20.709Z,7.23
2018-07-02T09:49:53.972Z,8.07
2018-07-02T09:52:27.264Z,7.97
2018-07-02T09:55:01.538Z,8.90
2018-07-02T09:57:34.675Z,8.50
2018-07-02T10:00:08.420Z,8.77
2018-07-02T10:02:41.549Z,9.57
2018-07-02T10:05:14.701Z,9.13
2018-07-02T10:07:47.962Z,9.87
2018-07-02T10:10:21.441Z,11.63
2018-07-02T10:12:55.651Z,10.20
2018-07-02T10:15:29.003Z,10.90
2018-07-02T10:18:02.649Z,10.90
2018-07-02T10:20:35.851Z,11.33
2018-07-02T10:23:08.998Z,11.77
2018-07-02T10:25:42.378Z,12.17
2018-07-02T10:28:15.546Z,12.53
2018-07-02T10:30:49.446Z,10.57
2018-07-02T10:33:23.300Z,9.93
2018-07-02T10:35:56.590Z,9.03
2018-07-02T10:38:29.978Z,10.07
2018-07-02T10:41:03.265Z,8.87
2018-07-02T10:43:36.671Z,9.60
2018-07-02T10:46:10.151Z,10.10
2018-07-02T10:48:43.532Z,8.77
2018-07-02T10:51:16.856Z,9.57
2018-07-02T10:53:50.149Z,9.60
2018-07-02T10:56:23.504Z,9.50
2018-07-02T10:58:56.692Z,9.67
2018-07-02T11:01:31.460Z,11.00
2018-07-02T11:04:04.732Z,9.43
2018-07-02T11:06:38.225Z,10.23
2018-07-02T11:09:12.000Z,9.27
2018-07-02T11:11:45.151Z,9.00
2018-07-02T11:14:18.391Z,9.20
2018-07-02T11:16:51.525Z,9.87
2018-07-02T11:19:24.769Z,8.70
2018-07-02T11:21:57.986Z,9.83
2018-07-02T11:24:31.367Z,9.30
2018-07-02T11:27:04.491Z,11.30
2018-07-02T11:29:37.571Z,11.13
2018-07-02T11:32:10.773Z,10.07
2018-07-02T11:34:43.966Z,8.87
2018-07-02T11:37:17.278Z,8.60
2018-07-02T11:39:50.379Z,8.13
2018-07-02T11:42:23.715Z,8.27
2018-07-02T11:44:57.730Z,7.77
2018-07-02T11:47:30.850Z,8.20
2018-07-02T11:50:04.095Z,7.97
2018-07-02T11:52:37.312Z,8.07
2018-07-02T11:55:10.570Z,8.23
2018-07-02T11:57:43.593Z,8.60
2018-07-02T12:00:16.794Z,7.87
2018-07-02T12:02:49.968Z,8.20
2018-07-02T12:05:23.286Z,8.03
2018-07-02T12:07:56.602Z,8.30
2018-07-02T12:10:29.780Z,8.73
2018-07-02T12:13:03.058Z,8.80
2018-07-02T12:15:37.174Z,9.33
2018-07-02T12:18:10.996Z,8.50
2018-07-02T12:20:44.055Z,8.20
2018-07-02T12:23:17.244Z,8.37
2018-07-02T12:25:50.497Z,8.43
2018-07-02T12:28:23.666Z,8.83
2018-07-02T12:30:56.856Z,8.73
2018-07-02T12:33:30.136Z,8.53
2018-07-02T12:36:03.280Z,7.90
2018-07-02T12:38:36.414Z,8.30
2018-07-02T12:41:09.774Z,7.13
2018-07-02T12:43:43.234Z,8.30
2018-07-02T12:46:17.201Z,7.97
2018-07-02T12:48:50.831Z,7.33
2018-07-02T12:51:25.181Z,7.87
2018-07-02T12:53:58.843Z,7.90
2018-07-02T12:56:32.572Z,7.13
2018-07-02T12:59:06.429Z,7.50
2018-07-02T13:01:41.267Z,7.60
2018-07-02T13:04:14.885Z,7.07
2018-07-02T13:06:49.475Z,7.23
2018-07-02T13:09:23.111Z,7.70
2018-07-02T13:11:57.094Z,8.30
2018-07-02T13:14:32.082Z,8.40
2018-07-02T13:17:06.495Z,6.97
2018-07-02T13:19:40.350Z,7.20
2018-07-02T13:22:13.927Z,8.57
2018-07-02T13:24:48.530Z,7.07
2018-07-02T13:27:22.410Z,7.30
2018-07-02T13:29:56.125Z,7.37
2018-07-02T13:32:30.848Z,7.50
2018-07-02T13:35:07.754Z,7.13
2018-07-02T13:37:42.031Z,7.00
2018-07-02T13:40:16.051Z,7.67
2018-07-02T13:42:49.834Z,7.80
2018-07-02T13:45:23.766Z,7.50
2018-07-02T13:47:57.605Z,7.13
2018-07-02T13:50:31.097Z,7.40
2018-07-02T13:53:05.763Z,8.23
2018-07-02T13:55:39.669Z,7.90
2018-07-02T13:58:14.511Z,7.40
2018-07-02T14:00:48.182Z,7.70
2018-07-02T14:03:21.812Z,7.67
2018-07-02T14:05:56.515Z,7.20
2018-07-02T14:08:30.551Z,7.17
2018-07-02T14:11:04.428Z,7.23
2018-07-02T14:13:38.649Z,6.57
2018-07-02T14:16:12.225Z,7.93
2018-07-02T14:18:45.788Z,8.20
2018-07-02T14:21:20.473Z,7.50
2018-07-02T14:23:54.229Z,7.40
2018-07-02T14:26:28.425Z,7.70
2018-07-02T14:29:02.437Z,8.40
2018-07-02T14:31:36.344Z,7.43
2018-07-02T14:34:10.293Z,7.20
2018-07-02T14:36:44.247Z,7.53
2018-07-02T14:39:18.417Z,7.60
2018-07-02T14:41:52.257Z,8.50
2018-07-02T14:44:25.880Z,8.50
2018-07-02T14:46:59.564Z,8.20
2018-07-02T14:49:34.082Z,8.00
2018-07-02T14:52:07.914Z,7.63
2018-07-02T14:54:44.395Z,8.87
2018-07-02T14:57:21.971Z,8.70
2018-07-02T14:59:57.066Z,7.80
2018-07-02T15:02:30.804Z,8.40
2018-07-02T15:05:04.533Z,9.07
2018-07-02T15:07:38.243Z,8.47
2018-07-02T15:10:12.123Z,9.67
2018-07-02T15:12:45.865Z,8.60
2018-07-02T15:15:19.310Z,9.60
2018-07-02T15:17:53.413Z,8.70
2018-07-02T15:20:26.963Z,8.50
2018-07-02T15:23:00.584Z,7.17
2018-07-02T15:25:34.382Z,7.30
2018-07-02T15:28:07.879Z,7.90
2018-07-02T15:30:41.344Z,7.47
2018-07-02T15:33:14.715Z,7.73
2018-07-02T15:35:48.051Z,7.43
2018-07-02T15:38:21.280Z,7.80
2018-07-02T15:40:55.333Z,6.40
2018-07-02T15:43:28.701Z,7.40
2018-07-02T15:46:01.935Z,6.20
2018-07-02T15:48:35.528Z,7.70
2018-07-02T15:51:08.663Z,7.00
2018-07-02T15:53:41.933Z,6.37
2018-07-02T15:56:15.174Z,7.07
2018-07-02T15:58:48.277Z,7.00
2018-07-02T16:01:21.445Z,6.17
2018-07-02T16:03:54.774Z,6.93
2018-07-02T16:06:26.611Z,5.53
2018-07-02T16:08:59.860Z,7.27
2018-07-02T16:11:33.040Z,7.07
2018-07-02T16:14:06.219Z,5.87
2018-07-02T16:16:39.378Z,6.43
2018-07-02T16:19:12.484Z,5.40
2018-07-02T16:21:45.774Z,6.40
2018-07-02T16:24:17.340Z,5.87
2018-07-02T16:26:50.561Z,5.90
2018-07-02T16:29:24.440Z,6.27
2018-07-02T16:31:57.763Z,5.97
2018-07-02T16:34:30.892Z,4.73
2018-07-02T16:37:04.113Z,5.07
2018-07-02T16:39:37.420Z,4.50
2018-07-02T16:42:10.706Z,5.33
2018-07-02T16:44:43.762Z,5.20
2018-07-02T16:47:16.936Z,4.50
2018-07-02T16:49:50.094Z,5.13
2018-07-02T16:52:23.316Z,4.90
2018-07-02T16:54:56.453Z,4.70
2018-07-02T16:57:29.716Z,4.70
2018-07-02T17:00:03.074Z,4.40
2018-07-02T17:02:36.203Z,4.37
2018-07-02T17:05:09.512Z,5.53
2018-07-02T17:07:42.667Z,4.40
2018-07-02T17:10:15.901Z,4.80
2018-07-02T17:12:49.048Z,3.83
2018-07-02T17:15:22.898Z,4.33
2018-07-02T17:17:56.095Z,4.43
2018-07-02T17:20:30.409Z,4.20
2018-07-02T17:23:03.588Z,5.10
2018-07-02T17:25:37.440Z,4.33
2018-07-02T17:28:10.710Z,4.37
2018-07-02T17:30:43.882Z,5.37
2018-07-02T17:33:15.493Z,4.80
2018-07-02T17:35:48.603Z,4.43
2018-07-02T17:38:21.824Z,5.30
2018-07-02T17:40:55.112Z,4.80
2018-07-02T17:43:28.278Z,5.17
2018-07-02T17:46:01.405Z,4.60
2018-07-02T17:48:34.606Z,5.50
2018-07-02T17:51:07.786Z,4.20
2018-07-02T17:53:41.019Z,4.17
2018-07-02T17:56:14.104Z,4.40
2018-07-02T17:58:47.651Z,4.67
2018-07-02T18:01:20.794Z,5.23
2018-07-02T18:03:53.958Z,4.83
2018-07-02T18:06:27.153Z,5.17
2018-07-02T18:09:00.349Z,4.23
2018-07-02T18:11:33.462Z,4.20
2018-07-02T18:14:06.795Z,4.93
2018-07-02T18:16:39.944Z,4.23
2018-07-02T18:19:13.027Z,5.30
2018-07-02T18:21:46.187Z,4.50
2018-07-02T18:24:19.402Z,3.97
2018-07-02T18:26:52.573Z,4.13
2018-07-02T18:29:25.855Z,4.20
2018-07-02T18:31:59.110Z,4.13
2018-07-02T18:34:32.327Z,5.07
2018-07-02T18:37:05.521Z,5.17
2018-07-02T18:39:38.622Z,5.93
2018-07-02T18:42:12.023Z,4.83
2018-07-02T18:44:45.263Z,5.23
2018-07-02T18:47:18.389Z,5.70
2018-07-02T18:49:51.586Z,4.43
2018-07-02T18:52:24.871Z,4.37
2018-07-02T18:54:57.954Z,4.70
2018-07-02T18:57:31.161Z,4.90
2018-07-02T19:00:04.360Z,5.33
2018-07-02T19:02:37.504Z,6.47
2018-07-02T19:05:09.251Z,5.90
2018-07-02T19:07:42.403Z,5.00
2018-07-02T19:10:15.616Z,5.33
2018-07-02T19:12:49.590Z,5.57
2018-07-02T19:15:22.925Z,5.53
2018-07-02T19:17:55.930Z,5.60
2018-07-02T19:20:29.140Z,4.50
2018-07-02T19:23:02.429Z,5.13
2018-07-02T19:25:35.861Z,4.60
2018-07-02T19:28:09.113Z,4.07
2018-07-02T19:30:40.721Z,4.13
2018-07-02T19:33:13.958Z,3.60
2018-07-02T19:35:46.996Z,5.00
2018-07-02T19:38:20.063Z,5.77
2018-07-02T19:40:53.187Z,5.90
2018-07-02T19:43:26.536Z,5.93
2018-07-02T19:45:59.699Z,5.93
2018-07-02T19:48:33.001Z,6.03
2018-07-02T19:51:06.154Z,5.43
2018-07-02T19:53:39.394Z,3.83
2018-07-02T19:56:12.760Z,3.83
2018-07-02T19:58:46.059Z,4.50
2018-07-02T20:01:19.150Z,4.37
2018-07-02T20:03:52.291Z,4.17
2018-07-02T20:06:25.530Z,3.47
2018-07-02T20:08:58.719Z,4.63
2018-07-02T20:11:31.768Z,4.53
2018-07-02T20:14:05.047Z,4.30
2018-07-02T20:16:38.164Z,4.90
2018-07-02T20:19:11.507Z,4.90
2018-07-02T20:21:44.915Z,5.20
2018-07-02T20:24:18.063Z,5.20
2018-07-02T20:26:51.190Z,7.07
2018-07-02T20:29:24.344Z,6.40
2018-07-02T20:31:57.519Z,6.20
2018-07-02T20:34:30.660Z,6.50
2018-07-02T20:37:03.912Z,7.00
2018-07-02T20:39:37.057Z,7.60
2018-07-02T20:42:10.422Z,7.37
2018-07-02T20:44:43.558Z,9.63
2018-07-02T20:47:16.908Z,8.07
2018-07-02T20:49:50.143Z,8.80
2018-07-02T20:52:23.415Z,9.73
2018-07-02T20:54:56.532Z,11.30
2018-07-02T20:57:29.694Z,12.80
2018-07-02T21:00:03.020Z,12.20
2018-07-02T21:02:36.194Z,12.70
2018-07-02T21:05:07.879Z,10.60
2018-07-02T21:07:41.239Z,10.53
2018-07-02T21:10:14.649Z,11.53
2018-07-02T21:12:48.007Z,11.57
2018-07-02T21:15:19.609Z,10.50
2018-07-02T21:17:52.697Z,9.90
2018-07-02T21:20:25.966Z,9.53
2018-07-02T21:22:59.068Z,10.63
2018-07-02T21:25:32.316Z,10.17
2018-07-02T21:28:05.429Z,12.23
2018-07-02T21:30:38.578Z,12.70
2018-07-02T21:33:11.834Z,12.97
2018-07-02T21:35:43.575Z,13.13
2018-07-02T21:38:16.709Z,14.07
2018-07-02T21:40:49.886Z,12.93
2018-07-02T21:43:23.160Z,13.20
2018-07-02T21:45:56.284Z,12.80
2018-07-02T21:48:29.387Z,14.10
2018-07-02T21:51:02.559Z,13.83
2018-07-02T21:53:35.741Z,12.30
2018-07-02T21:56:08.909Z,12.40
2018-07-02T21:58:42.070Z,11.20
2018-07-02T22:01:16.538Z,11.17
2018-07-02T22:03:50.140Z,10.00
2018-07-02T22:06:23.307Z,9.90
2018-07-02T22:08:56.427Z,9.10
2018-07-02T22:11:29.637Z,8.57
2018-07-02T22:14:03.175Z,7.60
2018-07-02T22:16:36.368Z,8.10
2018-07-02T22:19:09.646Z,8.20
2018-07-02T22:21:42.704Z,7.70
2018-07-02T22:24:15.940Z,8.57
2018-07-02T22:26:49.262Z,8.57
2018-07-02T22:29:20.994Z,8.63
2018-07-02T22:31:54.450Z,8.23
2018-07-02T22:34:28.364Z,8.63
2018-07-02T22:37:01.613Z,9.40
2018-07-02T22:39:34.802Z,7.93
2018-07-02T22:42:10.153Z,8.20
2018-07-02T22:44:41.861Z,7.90
2018-07-02T22:47:14.916Z,8.87
2018-07-02T22:49:49.391Z,11.47
2018-07-02T22:52:22.575Z,9.60
2018-07-02T22:54:55.906Z,9.90
2018-07-02T22:57:30.192Z,10.00
2018-07-02T23:00:03.527Z,9.47
2018-07-02T23:02:36.809Z,9.13
2018-07-02T23:05:12.466Z,9.47
2018-07-02T23:07:47.223Z,7.77
2018-07-02T23:10:20.385Z,9.30
2018-07-02T23:12:53.519Z,8.10
2018-07-02T23:15:28.500Z,6.77
2018-07-02T23:18:04.589Z,7.07
2018-07-02T23:20:39.515Z,5.60
2018-07-02T23:23:11.254Z,6.27
2018-07-02T23:25:44.537Z,5.20
2018-07-02T23:28:17.619Z,5.90
2018-07-02T23:30:49.405Z,6.50
2018-07-02T23:33:22.557Z,6.77
2018-07-02T23:35:57.557Z,6.77
2018-07-02T23:38:30.764Z,6.70
2018-07-02T23:41:03.891Z,6.67
2018-07-02T23:43:36.079Z,6.97
2018-07-02T23:46:09.467Z,6.80
2018-07-02T23:48:43.277Z,6.87
2018-07-02T23:51:16.493Z,6.47
2018-07-02T23:53:49.732Z,8.50
2018-07-02T23:56:23.145Z,7.60
2018-07-02T23:58:56.577Z,7.13
